sensor_id;sensor_type;location;lat;lon;timestamp;P1;durP1;ratioP1;P2;durP2;ratioP2
55134;SDS011;41031;44.750;11.308;2024-03-07T00:01:14;8.33;;;5.20;;
55134;SDS011;41031;44.750;11.308;2024-03-07T00:03:41;6.37;;;5.40;;
55134;SDS011;41031;44.750;11.308;2024-03-07T00:06:08;7.43;;;5.40;;
55134;SDS011;41031;44.750;11.308;2024-03-07T00:08:35;8.73;;;5.20;;
55134;SDS011;41031;44.750;11.308;2024-03-07T00:11:02;7.43;;;5.13;;
55134;SDS011;41031;44.750;11.308;2024-03-07T00:13:29;10.73;;;5.00;;
55134;SDS011;41031;44.750;11.308;2024-03-07T00:15:57;7.23;;;5.83;;
55134;SDS011;41031;44.750;11.308;2024-03-07T00:18:24;9.30;;;5.33;;
55134;SDS011;41031;44.750;11.308;2024-03-07T00:20:51;6.77;;;5.53;;
55134;SDS011;41031;44.750;11.308;2024-03-07T00:23:19;8.60;;;5.33;;
55134;SDS011;41031;44.750;11.308;2024-03-07T00:25:46;11.27;;;5.90;;
55134;SDS011;41031;44.750;11.308;2024-03-07T00:28:16;6.77;;;4.93;;
55134;SDS011;41031;44.750;11.308;2024-03-07T00:30:44;11.77;;;5.60;;
55134;SDS011;41031;44.750;11.308;2024-03-07T00:33:12;9.63;;;6.67;;
55134;SDS011;41031;44.750;11.308;2024-03-07T00:35:40;7.73;;;4.77;;
55134;SDS011;41031;44.750;11.308;2024-03-07T00:38:07;7.77;;;5.13;;
55134;SDS011;41031;44.750;11.308;2024-03-07T00:40:34;6.47;;;5.27;;
55134;SDS011;41031;44.750;11.308;2024-03-07T00:43:02;10.13;;;6.37;;
55134;SDS011;41031;44.750;11.308;2024-03-07T00:45:30;8.43;;;6.07;;
55134;SDS011;41031;44.750;11.308;2024-03-07T00:47:58;9.90;;;6.60;;
55134;SDS011;41031;44.750;11.308;2024-03-07T00:50:25;10.50;;;6.80;;
55134;SDS011;41031;44.750;11.308;2024-03-07T00:52:54;8.60;;;6.27;;
55134;SDS011;41031;44.750;11.308;2024-03-07T00:55:21;8.00;;;6.27;;
55134;SDS011;41031;44.750;11.308;2024-03-07T00:57:49;9.60;;;6.00;;
55134;SDS011;41031;44.750;11.308;2024-03-07T01:00:16;8.60;;;6.20;;
55134;SDS011;41031;44.750;11.308;2024-03-07T01:02:47;8.37;;;5.67;;
55134;SDS011;41031;44.750;11.308;2024-03-07T01:05:15;7.43;;;5.60;;
55134;SDS011;41031;44.750;11.308;2024-03-07T01:07:44;8.03;;;4.80;;
55134;SDS011;41031;44.750;11.308;2024-03-07T01:10:14;9.30;;;4.93;;
55134;SDS011;41031;44.750;11.308;2024-03-07T01:12:42;6.83;;;5.03;;
55134;SDS011;41031;44.750;11.308;2024-03-07T01:15:10;11.37;;;5.30;;
55134;SDS011;41031;44.750;11.308;2024-03-07T01:17:38;5.47;;;4.50;;
55134;SDS011;41031;44.750;11.308;2024-03-07T01:20:06;7.47;;;4.60;;
55134;SDS011;41031;44.750;11.308;2024-03-07T01:22:33;7.30;;;4.90;;
55134;SDS011;41031;44.750;11.308;2024-03-07T01:25:01;5.63;;;4.60;;
55134;SDS011;41031;44.750;11.308;2024-03-07T01:27:28;5.47;;;3.90;;
55134;SDS011;41031;44.750;11.308;2024-03-07T01:29:56;5.70;;;4.30;;
55134;SDS011;41031;44.750;11.308;2024-03-07T01:32:24;7.90;;;4.33;;
55134;SDS011;41031;44.750;11.308;2024-03-07T01:34:51;6.87;;;4.43;;
55134;SDS011;41031;44.750;11.308;2024-03-07T01:37:18;4.37;;;3.93;;
55134;SDS011;41031;44.750;11.308;2024-03-07T01:39:45;4.33;;;3.90;;
55134;SDS011;41031;44.750;11.308;2024-03-07T01:42:13;6.67;;;4.97;;
55134;SDS011;41031;44.750;11.308;2024-03-07T01:44:40;6.30;;;4.83;;
55134;SDS011;41031;44.750;11.308;2024-03-07T01:47:08;8.63;;;4.20;;
55134;SDS011;41031;44.750;11.308;2024-03-07T01:49:35;7.00;;;5.10;;
55134;SDS011;41031;44.750;11.308;2024-03-07T01:52:02;6.27;;;4.77;;
55134;SDS011;41031;44.750;11.308;2024-03-07T01:54:31;6.00;;;4.90;;
55134;SDS011;41031;44.750;11.308;2024-03-07T01:56:59;6.30;;;5.20;;
55134;SDS011;41031;44.750;11.308;2024-03-07T01:59:29;7.53;;;6.47;;
55134;SDS011;41031;44.750;11.308;2024-03-07T02:01:56;7.53;;;6.40;;
55134;SDS011;41031;44.750;11.308;2024-03-07T02:04:23;8.80;;;6.33;;
55134;SDS011;41031;44.750;11.308;2024-03-07T02:06:51;8.83;;;5.77;;
55134;SDS011;41031;44.750;11.308;2024-03-07T02:09:20;9.10;;;6.17;;
55134;SDS011;41031;44.750;11.308;2024-03-07T02:11:48;8.97;;;5.87;;
55134;SDS011;41031;44.750;11.308;2024-03-07T02:14:18;8.67;;;6.50;;
55134;SDS011;41031;44.750;11.308;2024-03-07T02:16:45;7.90;;;6.10;;
55134;SDS011;41031;44.750;11.308;2024-03-07T02:19:14;7.63;;;5.50;;
55134;SDS011;41031;44.750;11.308;2024-03-07T02:21:44;10.07;;;6.40;;
55134;SDS011;41031;44.750;11.308;2024-03-07T02:24:11;7.20;;;5.33;;
55134;SDS011;41031;44.750;11.308;2024-03-07T02:26:38;8.40;;;5.07;;
55134;SDS011;41031;44.750;11.308;2024-03-07T02:29:06;7.47;;;5.00;;
55134;SDS011;41031;44.750;11.308;2024-03-07T02:31:33;9.93;;;5.80;;
55134;SDS011;41031;44.750;11.308;2024-03-07T02:34:03;6.63;;;5.37;;
55134;SDS011;41031;44.750;11.308;2024-03-07T02:36:31;8.53;;;6.07;;
55134;SDS011;41031;44.750;11.308;2024-03-07T02:38:58;7.73;;;5.90;;
55134;SDS011;41031;44.750;11.308;2024-03-07T02:41:26;9.27;;;5.50;;
55134;SDS011;41031;44.750;11.308;2024-03-07T02:43:53;6.93;;;5.33;;
55134;SDS011;41031;44.750;11.308;2024-03-07T02:46:20;6.77;;;5.77;;
55134;SDS011;41031;44.750;11.308;2024-03-07T02:48:48;10.80;;;5.93;;
55134;SDS011;41031;44.750;11.308;2024-03-07T02:51:15;7.10;;;5.87;;
55134;SDS011;41031;44.750;11.308;2024-03-07T02:53:42;6.80;;;5.77;;
55134;SDS011;41031;44.750;11.308;2024-03-07T02:56:09;7.40;;;6.53;;
55134;SDS011;41031;44.750;11.308;2024-03-07T02:58:36;7.70;;;6.20;;
55134;SDS011;41031;44.750;11.308;2024-03-07T03:01:04;9.10;;;6.50;;
55134;SDS011;41031;44.750;11.308;2024-03-07T03:03:32;10.60;;;6.90;;
55134;SDS011;41031;44.750;11.308;2024-03-07T03:05:59;7.87;;;6.73;;
55134;SDS011;41031;44.750;11.308;2024-03-07T03:08:26;11.23;;;8.40;;
55134;SDS011;41031;44.750;11.308;2024-03-07T03:10:55;8.60;;;7.70;;
55134;SDS011;41031;44.750;11.308;2024-03-07T03:13:23;9.63;;;7.60;;
55134;SDS011;41031;44.750;11.308;2024-03-07T03:15:51;11.47;;;7.67;;
55134;SDS011;41031;44.750;11.308;2024-03-07T03:18:18;11.30;;;9.43;;
55134;SDS011;41031;44.750;11.308;2024-03-07T03:20:45;9.70;;;8.70;;
55134;SDS011;41031;44.750;11.308;2024-03-07T03:23:14;11.83;;;8.50;;
55134;SDS011;41031;44.750;11.308;2024-03-07T03:25:47;13.33;;;7.90;;
55134;SDS011;41031;44.750;11.308;2024-03-07T03:28:17;13.40;;;8.60;;
55134;SDS011;41031;44.750;11.308;2024-03-07T03:30:47;10.90;;;7.93;;
55134;SDS011;41031;44.750;11.308;2024-03-07T03:33:15;9.90;;;8.90;;
55134;SDS011;41031;44.750;11.308;2024-03-07T03:35:44;12.13;;;8.13;;
55134;SDS011;41031;44.750;11.308;2024-03-07T03:38:12;9.23;;;8.20;;
55134;SDS011;41031;44.750;11.308;2024-03-07T03:40:40;11.07;;;7.87;;
55134;SDS011;41031;44.750;11.308;2024-03-07T03:43:08;9.43;;;8.33;;
55134;SDS011;41031;44.750;11.308;2024-03-07T03:45:36;9.60;;;8.00;;
55134;SDS011;41031;44.750;11.308;2024-03-07T03:48:05;11.53;;;8.73;;
55134;SDS011;41031;44.750;11.308;2024-03-07T03:50:33;10.90;;;8.30;;
55134;SDS011;41031;44.750;11.308;2024-03-07T03:53:02;10.00;;;8.83;;
55134;SDS011;41031;44.750;11.308;2024-03-07T03:55:31;8.73;;;7.70;;
55134;SDS011;41031;44.750;11.308;2024-03-07T03:57:59;10.13;;;8.47;;
55134;SDS011;41031;44.750;11.308;2024-03-07T04:00:27;10.73;;;8.67;;
55134;SDS011;41031;44.750;11.308;2024-03-07T04:02:54;11.23;;;7.90;;
55134;SDS011;41031;44.750;11.308;2024-03-07T04:05:23;8.77;;;7.87;;
55134;SDS011;41031;44.750;11.308;2024-03-07T04:07:51;9.73;;;8.37;;
55134;SDS011;41031;44.750;11.308;2024-03-07T04:10:21;10.27;;;8.10;;
55134;SDS011;41031;44.750;11.308;2024-03-07T04:12:48;11.53;;;8.13;;
55134;SDS011;41031;44.750;11.308;2024-03-07T04:15:15;10.50;;;8.23;;
55134;SDS011;41031;44.750;11.308;2024-03-07T04:17:46;9.93;;;8.13;;
55134;SDS011;41031;44.750;11.308;2024-03-07T04:20:14;14.10;;;8.50;;
55134;SDS011;41031;44.750;11.308;2024-03-07T04:22:45;12.07;;;8.33;;
55134;SDS011;41031;44.750;11.308;2024-03-07T04:25:12;8.97;;;8.07;;
55134;SDS011;41031;44.750;11.308;2024-03-07T04:27:41;10.93;;;8.27;;
55134;SDS011;41031;44.750;11.308;2024-03-07T04:30:09;12.00;;;8.70;;
55134;SDS011;41031;44.750;11.308;2024-03-07T04:32:37;10.90;;;8.43;;
55134;SDS011;41031;44.750;11.308;2024-03-07T04:35:05;11.33;;;8.50;;
55134;SDS011;41031;44.750;11.308;2024-03-07T04:37:39;9.90;;;7.70;;
55134;SDS011;41031;44.750;11.308;2024-03-07T04:40:07;9.40;;;8.50;;
55134;SDS011;41031;44.750;11.308;2024-03-07T04:42:48;11.47;;;9.03;;
55134;SDS011;41031;44.750;11.308;2024-03-07T04:45:16;12.07;;;8.83;;
55134;SDS011;41031;44.750;11.308;2024-03-07T04:47:45;11.10;;;8.03;;
55134;SDS011;41031;44.750;11.308;2024-03-07T04:50:16;9.80;;;7.90;;
55134;SDS011;41031;44.750;11.308;2024-03-07T04:52:45;13.63;;;9.23;;
55134;SDS011;41031;44.750;11.308;2024-03-07T04:55:14;11.37;;;9.23;;
55134;SDS011;41031;44.750;11.308;2024-03-07T04:57:42;13.73;;;10.03;;
55134;SDS011;41031;44.750;11.308;2024-03-07T05:00:10;11.40;;;8.77;;
55134;SDS011;41031;44.750;11.308;2024-03-07T05:02:43;10.37;;;8.23;;
55134;SDS011;41031;44.750;11.308;2024-03-07T05:05:11;12.23;;;9.30;;
55134;SDS011;41031;44.750;11.308;2024-03-07T05:07:40;12.20;;;9.60;;
55134;SDS011;41031;44.750;11.308;2024-03-07T05:10:08;13.90;;;9.43;;
55134;SDS011;41031;44.750;11.308;2024-03-07T05:12:35;12.60;;;8.60;;
55134;SDS011;41031;44.750;11.308;2024-03-07T05:15:04;10.60;;;8.13;;
55134;SDS011;41031;44.750;11.308;2024-03-07T05:17:32;11.13;;;9.10;;
55134;SDS011;41031;44.750;11.308;2024-03-07T05:20:02;12.20;;;9.43;;
55134;SDS011;41031;44.750;11.308;2024-03-07T05:22:30;11.27;;;9.27;;
55134;SDS011;41031;44.750;11.308;2024-03-07T05:24:57;12.87;;;9.57;;
55134;SDS011;41031;44.750;11.308;2024-03-07T05:27:25;13.47;;;10.40;;
55134;SDS011;41031;44.750;11.308;2024-03-07T05:29:54;10.13;;;8.90;;
55134;SDS011;41031;44.750;11.308;2024-03-07T05:32:25;11.50;;;9.87;;
55134;SDS011;41031;44.750;11.308;2024-03-07T05:34:54;10.57;;;9.23;;
55134;SDS011;41031;44.750;11.308;2024-03-07T05:37:21;11.60;;;9.40;;
55134;SDS011;41031;44.750;11.308;2024-03-07T05:39:49;13.30;;;9.77;;
55134;SDS011;41031;44.750;11.308;2024-03-07T05:42:16;11.43;;;8.80;;
55134;SDS011;41031;44.750;11.308;2024-03-07T05:44:44;14.60;;;10.00;;
55134;SDS011;41031;44.750;11.308;2024-03-07T05:47:11;9.93;;;8.83;;
55134;SDS011;41031;44.750;11.308;2024-03-07T05:49:43;13.00;;;9.63;;
55134;SDS011;41031;44.750;11.308;2024-03-07T05:52:10;12.53;;;9.53;;
55134;SDS011;41031;44.750;11.308;2024-03-07T05:54:37;14.40;;;10.50;;
55134;SDS011;41031;44.750;11.308;2024-03-07T05:57:04;10.50;;;9.20;;
55134;SDS011;41031;44.750;11.308;2024-03-07T05:59:34;11.77;;;9.77;;
55134;SDS011;41031;44.750;11.308;2024-03-07T06:02:01;12.57;;;9.57;;
55134;SDS011;41031;44.750;11.308;2024-03-07T06:04:29;12.53;;;10.60;;
55134;SDS011;41031;44.750;11.308;2024-03-07T06:06:58;15.23;;;9.87;;
55134;SDS011;41031;44.750;11.308;2024-03-07T06:09:26;14.03;;;10.00;;
55134;SDS011;41031;44.750;11.308;2024-03-07T06:11:53;12.47;;;10.67;;
55134;SDS011;41031;44.750;11.308;2024-03-07T06:14:20;12.87;;;10.43;;
55134;SDS011;41031;44.750;11.308;2024-03-07T06:16:49;11.00;;;9.87;;
55134;SDS011;41031;44.750;11.308;2024-03-07T06:19:18;11.40;;;9.97;;
55134;SDS011;41031;44.750;11.308;2024-03-07T06:21:45;13.07;;;10.07;;
55134;SDS011;41031;44.750;11.308;2024-03-07T06:24:13;11.30;;;10.10;;
55134;SDS011;41031;44.750;11.308;2024-03-07T06:26:42;15.77;;;10.37;;
55134;SDS011;41031;44.750;11.308;2024-03-07T06:29:13;16.40;;;11.33;;
55134;SDS011;41031;44.750;11.308;2024-03-07T06:31:45;16.37;;;10.90;;
55134;SDS011;41031;44.750;11.308;2024-03-07T06:34:16;12.97;;;9.93;;
55134;SDS011;41031;44.750;11.308;2024-03-07T06:36:44;11.60;;;9.30;;
55134;SDS011;41031;44.750;11.308;2024-03-07T06:39:11;9.87;;;8.97;;
55134;SDS011;41031;44.750;11.308;2024-03-07T06:41:39;10.23;;;8.57;;
55134;SDS011;41031;44.750;11.308;2024-03-07T06:44:06;11.47;;;9.37;;
55134;SDS011;41031;44.750;11.308;2024-03-07T06:46:36;13.10;;;10.20;;
55134;SDS011;41031;44.750;11.308;2024-03-07T06:49:03;12.23;;;10.23;;
55134;SDS011;41031;44.750;11.308;2024-03-07T06:51:36;13.17;;;9.67;;
55134;SDS011;41031;44.750;11.308;2024-03-07T06:54:04;16.37;;;11.10;;
55134;SDS011;41031;44.750;11.308;2024-03-07T06:56:32;11.13;;;9.97;;
55134;SDS011;41031;44.750;11.308;2024-03-07T06:59:00;14.20;;;9.63;;
55134;SDS011;41031;44.750;11.308;2024-03-07T07:01:31;12.40;;;8.97;;
55134;SDS011;41031;44.750;11.308;2024-03-07T07:03:59;13.53;;;9.20;;
55134;SDS011;41031;44.750;11.308;2024-03-07T07:06:30;10.57;;;8.80;;
55134;SDS011;41031;44.750;11.308;2024-03-07T07:08:58;9.27;;;8.37;;
55134;SDS011;41031;44.750;11.308;2024-03-07T07:11:26;13.37;;;9.50;;
55134;SDS011;41031;44.750;11.308;2024-03-07T07:13:59;11.83;;;8.33;;
55134;SDS011;41031;44.750;11.308;2024-03-07T07:16:26;11.93;;;7.20;;
55134;SDS011;41031;44.750;11.308;2024-03-07T07:18:54;9.93;;;7.43;;
55134;SDS011;41031;44.750;11.308;2024-03-07T07:21:21;13.13;;;8.23;;
55134;SDS011;41031;44.750;11.308;2024-03-07T07:23:49;9.10;;;8.00;;
55134;SDS011;41031;44.750;11.308;2024-03-07T07:26:16;9.23;;;7.27;;
55134;SDS011;41031;44.750;11.308;2024-03-07T07:28:43;11.47;;;7.93;;
55134;SDS011;41031;44.750;11.308;2024-03-07T07:31:10;13.87;;;8.20;;
55134;SDS011;41031;44.750;11.308;2024-03-07T07:33:37;9.90;;;8.30;;
55134;SDS011;41031;44.750;11.308;2024-03-07T07:36:05;8.93;;;7.67;;
55134;SDS011;41031;44.750;11.308;2024-03-07T07:38:32;9.60;;;7.83;;
55134;SDS011;41031;44.750;11.308;2024-03-07T07:40:59;9.87;;;7.37;;
55134;SDS011;41031;44.750;11.308;2024-03-07T07:43:27;11.87;;;8.37;;
55134;SDS011;41031;44.750;11.308;2024-03-07T07:46:08;12.30;;;8.57;;
55134;SDS011;41031;44.750;11.308;2024-03-07T07:48:35;12.37;;;8.37;;
55134;SDS011;41031;44.750;11.308;2024-03-07T07:51:03;8.83;;;7.77;;
55134;SDS011;41031;44.750;11.308;2024-03-07T07:53:32;11.37;;;8.47;;
55134;SDS011;41031;44.750;11.308;2024-03-07T07:55:59;8.33;;;6.90;;
55134;SDS011;41031;44.750;11.308;2024-03-07T07:58:26;8.73;;;7.83;;
55134;SDS011;41031;44.750;11.308;2024-03-07T08:00:53;10.33;;;7.83;;
55134;SDS011;41031;44.750;11.308;2024-03-07T08:03:20;11.47;;;7.40;;
55134;SDS011;41031;44.750;11.308;2024-03-07T08:05:49;11.47;;;8.17;;
55134;SDS011;41031;44.750;11.308;2024-03-07T08:08:16;10.00;;;7.67;;
55134;SDS011;41031;44.750;11.308;2024-03-07T08:10:45;10.47;;;7.93;;
55134;SDS011;41031;44.750;11.308;2024-03-07T08:13:13;9.13;;;7.53;;
55134;SDS011;41031;44.750;11.308;2024-03-07T08:15:41;19.50;;;9.87;;
55134;SDS011;41031;44.750;11.308;2024-03-07T08:18:08;12.33;;;8.80;;
55134;SDS011;41031;44.750;11.308;2024-03-07T08:20:37;10.20;;;7.23;;
55134;SDS011;41031;44.750;11.308;2024-03-07T08:23:06;9.80;;;7.37;;
55134;SDS011;41031;44.750;11.308;2024-03-07T08:25:34;12.57;;;7.90;;
55134;SDS011;41031;44.750;11.308;2024-03-07T08:28:01;12.00;;;8.60;;
55134;SDS011;41031;44.750;11.308;2024-03-07T08:30:28;8.63;;;7.37;;
55134;SDS011;41031;44.750;11.308;2024-03-07T08:32:56;11.40;;;7.60;;
55134;SDS011;41031;44.750;11.308;2024-03-07T08:35:25;11.97;;;6.73;;
55134;SDS011;41031;44.750;11.308;2024-03-07T08:37:53;7.57;;;6.77;;
55134;SDS011;41031;44.750;11.308;2024-03-07T08:40:25;8.97;;;7.10;;
55134;SDS011;41031;44.750;11.308;2024-03-07T08:42:58;9.00;;;6.60;;
55134;SDS011;41031;44.750;11.308;2024-03-07T08:45:26;8.77;;;6.40;;
55134;SDS011;41031;44.750;11.308;2024-03-07T08:47:55;10.27;;;5.70;;
55134;SDS011;41031;44.750;11.308;2024-03-07T08:50:25;7.60;;;6.03;;
55134;SDS011;41031;44.750;11.308;2024-03-07T08:52:53;7.33;;;5.57;;
55134;SDS011;41031;44.750;11.308;2024-03-07T08:55:24;6.43;;;4.67;;
55134;SDS011;41031;44.750;11.308;2024-03-07T08:57:52;6.83;;;4.63;;
55134;SDS011;41031;44.750;11.308;2024-03-07T09:00:20;7.03;;;5.33;;
55134;SDS011;41031;44.750;11.308;2024-03-07T09:02:53;9.53;;;5.90;;
55134;SDS011;41031;44.750;11.308;2024-03-07T09:05:28;6.03;;;5.10;;
55134;SDS011;41031;44.750;11.308;2024-03-07T09:07:56;7.30;;;5.47;;
55134;SDS011;41031;44.750;11.308;2024-03-07T09:10:24;9.80;;;6.03;;
55134;SDS011;41031;44.750;11.308;2024-03-07T09:12:57;7.13;;;4.50;;
55134;SDS011;41031;44.750;11.308;2024-03-07T09:15:25;8.43;;;4.80;;
55134;SDS011;41031;44.750;11.308;2024-03-07T09:17:53;6.20;;;3.77;;
55134;SDS011;41031;44.750;11.308;2024-03-07T09:20:21;6.20;;;4.73;;
55134;SDS011;41031;44.750;11.308;2024-03-07T09:22:48;5.97;;;4.43;;
55134;SDS011;41031;44.750;11.308;2024-03-07T09:25:17;5.40;;;4.57;;
55134;SDS011;41031;44.750;11.308;2024-03-07T09:27:46;5.93;;;3.77;;
55134;SDS011;41031;44.750;11.308;2024-03-07T09:30:13;3.90;;;3.37;;
55134;SDS011;41031;44.750;11.308;2024-03-07T09:32:50;6.07;;;3.20;;
55134;SDS011;41031;44.750;11.308;2024-03-07T09:35:18;3.33;;;2.60;;
55134;SDS011;41031;44.750;11.308;2024-03-07T09:37:45;7.70;;;2.23;;
55134;SDS011;41031;44.750;11.308;2024-03-07T09:40:13;5.77;;;2.37;;
55134;SDS011;41031;44.750;11.308;2024-03-07T09:42:45;5.30;;;3.07;;
55134;SDS011;41031;44.750;11.308;2024-03-07T09:45:17;2.43;;;2.10;;
55134;SDS011;41031;44.750;11.308;2024-03-07T09:47:49;4.80;;;2.97;;
55134;SDS011;41031;44.750;11.308;2024-03-07T09:50:20;4.20;;;2.70;;
55134;SDS011;41031;44.750;11.308;2024-03-07T09:52:50;6.80;;;3.07;;
55134;SDS011;41031;44.750;11.308;2024-03-07T09:55:21;3.87;;;2.87;;
55134;SDS011;41031;44.750;11.308;2024-03-07T09:57:53;3.13;;;2.53;;
55134;SDS011;41031;44.750;11.308;2024-03-07T10:00:23;4.03;;;2.20;;
55134;SDS011;41031;44.750;11.308;2024-03-07T10:02:57;3.23;;;2.33;;
55134;SDS011;41031;44.750;11.308;2024-03-07T10:05:28;3.17;;;2.63;;
55134;SDS011;41031;44.750;11.308;2024-03-07T10:07:58;5.73;;;2.90;;
55134;SDS011;41031;44.750;11.308;2024-03-07T10:10:26;4.20;;;3.10;;
55134;SDS011;41031;44.750;11.308;2024-03-07T10:12:53;5.37;;;2.90;;
55134;SDS011;41031;44.750;11.308;2024-03-07T10:15:20;3.00;;;2.67;;
55134;SDS011;41031;44.750;11.308;2024-03-07T10:17:49;4.03;;;2.90;;
55134;SDS011;41031;44.750;11.308;2024-03-07T10:20:18;3.37;;;2.70;;
55134;SDS011;41031;44.750;11.308;2024-03-07T10:22:49;3.87;;;2.67;;
55134;SDS011;41031;44.750;11.308;2024-03-07T10:25:17;2.90;;;2.40;;
55134;SDS011;41031;44.750;11.308;2024-03-07T10:27:46;8.47;;;3.17;;
55134;SDS011;41031;44.750;11.308;2024-03-07T10:30:16;2.90;;;2.50;;
55134;SDS011;41031;44.750;11.308;2024-03-07T10:32:57;5.10;;;2.50;;
55134;SDS011;41031;44.750;11.308;2024-03-07T10:35:28;4.17;;;2.70;;
55134;SDS011;41031;44.750;11.308;2024-03-07T10:37:57;4.97;;;3.87;;
55134;SDS011;41031;44.750;11.308;2024-03-07T10:40:33;3.80;;;2.50;;
55134;SDS011;41031;44.750;11.308;2024-03-07T10:43:04;4.40;;;3.00;;
55134;SDS011;41031;44.750;11.308;2024-03-07T10:45:42;2.50;;;2.00;;
55134;SDS011;41031;44.750;11.308;2024-03-07T10:48:16;4.03;;;2.20;;
55134;SDS011;41031;44.750;11.308;2024-03-07T10:51:02;3.53;;;2.07;;
55134;SDS011;41031;44.750;11.308;2024-03-07T10:54:03;3.67;;;2.00;;
55134;SDS011;41031;44.750;11.308;2024-03-07T10:57:03;3.40;;;2.33;;
55134;SDS011;41031;44.750;11.308;2024-03-07T10:59:32;6.83;;;2.33;;
55134;SDS011;41031;44.750;11.308;2024-03-07T11:04:54;4.77;;;2.97;;
55134;SDS011;41031;44.750;11.308;2024-03-07T11:07:23;4.13;;;2.20;;
55134;SDS011;41031;44.750;11.308;2024-03-07T11:09:53;2.70;;;2.07;;
55134;SDS011;41031;44.750;11.308;2024-03-07T11:12:23;4.13;;;2.63;;
55134;SDS011;41031;44.750;11.308;2024-03-07T11:14:54;5.30;;;2.33;;
55134;SDS011;41031;44.750;11.308;2024-03-07T11:17:23;3.27;;;1.90;;
55134;SDS011;41031;44.750;11.308;2024-03-07T11:19:51;4.50;;;2.10;;
55134;SDS011;41031;44.750;11.308;2024-03-07T11:22:30;4.13;;;2.20;;
55134;SDS011;41031;44.750;11.308;2024-03-07T11:25:03;4.70;;;2.57;;
55134;SDS011;41031;44.750;11.308;2024-03-07T11:27:37;4.60;;;1.80;;
55134;SDS011;41031;44.750;11.308;2024-03-07T11:30:06;6.40;;;1.87;;
55134;SDS011;41031;44.750;11.308;2024-03-07T11:32:37;3.30;;;1.80;;
55134;SDS011;41031;44.750;11.308;2024-03-07T11:35:05;2.33;;;1.97;;
55134;SDS011;41031;44.750;11.308;2024-03-07T11:37:44;2.03;;;1.70;;
55134;SDS011;41031;44.750;11.308;2024-03-07T11:42:52;3.23;;;2.07;;
55134;SDS011;41031;44.750;11.308;2024-03-07T11:45:20;2.13;;;1.80;;
55134;SDS011;41031;44.750;11.308;2024-03-07T11:48:00;2.90;;;1.90;;
55134;SDS011;41031;44.750;11.308;2024-03-07T11:50:33;2.93;;;2.10;;
55134;SDS011;41031;44.750;11.308;2024-03-07T11:53:02;3.37;;;2.17;;
55134;SDS011;41031;44.750;11.308;2024-03-07T11:55:39;5.17;;;2.70;;
55134;SDS011;41031;44.750;11.308;2024-03-07T11:58:14;2.83;;;1.80;;
55134;SDS011;41031;44.750;11.308;2024-03-07T12:00:49;3.70;;;1.93;;
55134;SDS011;41031;44.750;11.308;2024-03-07T12:03:19;6.27;;;2.50;;
55134;SDS011;41031;44.750;11.308;2024-03-07T12:05:52;3.37;;;2.00;;
55134;SDS011;41031;44.750;11.308;2024-03-07T12:08:20;3.47;;;2.40;;
55134;SDS011;41031;44.750;11.308;2024-03-07T12:10:52;3.40;;;2.00;;
55134;SDS011;41031;44.750;11.308;2024-03-07T12:13:25;5.00;;;2.80;;
55134;SDS011;41031;44.750;11.308;2024-03-07T12:15:53;4.23;;;2.60;;
55134;SDS011;41031;44.750;11.308;2024-03-07T12:18:22;4.50;;;2.17;;
55134;SDS011;41031;44.750;11.308;2024-03-07T12:20:51;3.40;;;2.77;;
55134;SDS011;41031;44.750;11.308;2024-03-07T12:23:23;3.13;;;2.13;;
55134;SDS011;41031;44.750;11.308;2024-03-07T12:26:00;4.43;;;2.73;;
55134;SDS011;41031;44.750;11.308;2024-03-07T12:28:30;5.03;;;2.30;;
55134;SDS011;41031;44.750;11.308;2024-03-07T12:31:02;3.93;;;2.30;;
55134;SDS011;41031;44.750;11.308;2024-03-07T12:33:30;4.07;;;2.90;;
55134;SDS011;41031;44.750;11.308;2024-03-07T12:36:01;5.03;;;2.67;;
55134;SDS011;41031;44.750;11.308;2024-03-07T12:38:37;4.77;;;2.30;;
55134;SDS011;41031;44.750;11.308;2024-03-07T12:41:08;5.07;;;3.17;;
55134;SDS011;41031;44.750;11.308;2024-03-07T12:43:44;4.30;;;2.57;;
55134;SDS011;41031;44.750;11.308;2024-03-07T12:46:14;3.40;;;2.87;;
55134;SDS011;41031;44.750;11.308;2024-03-07T12:48:44;4.23;;;2.73;;
55134;SDS011;41031;44.750;11.308;2024-03-07T12:51:16;4.57;;;3.03;;
55134;SDS011;41031;44.750;11.308;2024-03-07T12:53:46;4.20;;;2.83;;
55134;SDS011;41031;44.750;11.308;2024-03-07T12:56:14;3.77;;;3.23;;
55134;SDS011;41031;44.750;11.308;2024-03-07T12:58:44;6.27;;;3.13;;
55134;SDS011;41031;44.750;11.308;2024-03-07T13:01:13;3.70;;;2.67;;
55134;SDS011;41031;44.750;11.308;2024-03-07T13:03:41;5.83;;;3.30;;
55134;SDS011;41031;44.750;11.308;2024-03-07T13:06:11;2.97;;;2.67;;
55134;SDS011;41031;44.750;11.308;2024-03-07T13:08:39;5.63;;;2.50;;
55134;SDS011;41031;44.750;11.308;2024-03-07T13:11:07;5.10;;;3.50;;
55134;SDS011;41031;44.750;11.308;2024-03-07T13:13:37;3.73;;;2.90;;
55134;SDS011;41031;44.750;11.308;2024-03-07T13:16:04;5.57;;;3.00;;
55134;SDS011;41031;44.750;11.308;2024-03-07T13:18:31;3.63;;;2.67;;
55134;SDS011;41031;44.750;11.308;2024-03-07T13:21:01;4.60;;;3.30;;
55134;SDS011;41031;44.750;11.308;2024-03-07T13:23:31;5.30;;;3.20;;
55134;SDS011;41031;44.750;11.308;2024-03-07T13:26:02;4.43;;;2.77;;
55134;SDS011;41031;44.750;11.308;2024-03-07T13:28:35;7.70;;;4.37;;
55134;SDS011;41031;44.750;11.308;2024-03-07T13:31:02;5.67;;;3.23;;
55134;SDS011;41031;44.750;11.308;2024-03-07T13:33:30;4.27;;;2.67;;
55134;SDS011;41031;44.750;11.308;2024-03-07T13:35:57;3.87;;;2.70;;
55134;SDS011;41031;44.750;11.308;2024-03-07T13:38:27;10.27;;;6.93;;
55134;SDS011;41031;44.750;11.308;2024-03-07T13:40:55;10.07;;;5.80;;
55134;SDS011;41031;44.750;11.308;2024-03-07T13:43:23;6.17;;;3.40;;
55134;SDS011;41031;44.750;11.308;2024-03-07T13:45:51;6.93;;;3.00;;
55134;SDS011;41031;44.750;11.308;2024-03-07T13:48:18;5.97;;;3.40;;
55134;SDS011;41031;44.750;11.308;2024-03-07T13:50:46;4.07;;;2.60;;
55134;SDS011;41031;44.750;11.308;2024-03-07T13:53:26;3.50;;;2.70;;
55134;SDS011;41031;44.750;11.308;2024-03-07T14:06:41;4.67;;;3.30;;
55134;SDS011;41031;44.750;11.308;2024-03-07T14:15:56;4.50;;;2.80;;
55134;SDS011;41031;44.750;11.308;2024-03-07T14:24:16;6.30;;;3.00;;
55134;SDS011;41031;44.750;11.308;2024-03-07T14:32:49;4.10;;;2.40;;
55134;SDS011;41031;44.750;11.308;2024-03-07T14:38:06;3.77;;;2.43;;
55134;SDS011;41031;44.750;11.308;2024-03-07T14:40:40;5.03;;;3.13;;
55134;SDS011;41031;44.750;11.308;2024-03-07T14:43:07;3.40;;;2.30;;
55134;SDS011;41031;44.750;11.308;2024-03-07T14:45:39;4.17;;;2.23;;
55134;SDS011;41031;44.750;11.308;2024-03-07T14:48:07;4.80;;;2.63;;
55134;SDS011;41031;44.750;11.308;2024-03-07T14:50:37;6.70;;;3.10;;
55134;SDS011;41031;44.750;11.308;2024-03-07T14:53:07;5.83;;;3.50;;
55134;SDS011;41031;44.750;11.308;2024-03-07T14:55:35;4.03;;;2.53;;
55134;SDS011;41031;44.750;11.308;2024-03-07T14:58:04;4.00;;;2.90;;
55134;SDS011;41031;44.750;11.308;2024-03-07T15:00:32;4.47;;;2.83;;
55134;SDS011;41031;44.750;11.308;2024-03-07T15:03:08;6.13;;;3.20;;
55134;SDS011;41031;44.750;11.308;2024-03-07T15:05:37;4.07;;;2.47;;
55134;SDS011;41031;44.750;11.308;2024-03-07T15:08:04;3.83;;;2.90;;
55134;SDS011;41031;44.750;11.308;2024-03-07T15:10:33;4.33;;;2.90;;
55134;SDS011;41031;44.750;11.308;2024-03-07T15:13:02;2.93;;;2.63;;
55134;SDS011;41031;44.750;11.308;2024-03-07T15:15:34;8.33;;;3.00;;
55134;SDS011;41031;44.750;11.308;2024-03-07T15:18:02;7.97;;;2.70;;
55134;SDS011;41031;44.750;11.308;2024-03-07T15:20:29;6.30;;;3.58;;